Thunder radar more information blitzortung!


Radar de pluja more information rain snow radar


Visita la nostra xarxa de llocs de meteo:

Template documentation
and downloads

And another site



Wind From: 11-12-2017 11:00 Until: 14:59 warning for: Wind Level: Yellow info button

Pagina Historial Weather Underground text

Diari Resum May 12, 2017 Unitats:  Mètric    Imperial   Tant
« Previous Dia
SegĂźent Dia »
Diari Setmana Mensual Anual Personalitzada
  Maxima: Minima: Media:
Temperatura: 25.4 °C 12.2 °C 20.2 °C
Punt de rosada: 12.9 °C 6.4 °C 9.5 °C
Humitat: 84 % 32 % 52 %
Wind Speed: 24.1 km/h 0.0 km/h 8.7 km/h
RĂ fegues de vent: 24.1 km/h - -
Vent:- - WSW
Pression baro: 1011.7 hPa 1002.9 hPa -
Precipitacions: 0.0 mm    
Historical Graphs
 
 
Dades de taula per May 12, 2017
Temps Temperatura Punt de rosada Pression baro Vent Wind Speed RĂ fegues de vent Humitat Rainfall Rate (Hourly)
00:01 15.8 °C 12.7 °C 1002.9 hPa WSW 2.3 km/h 2.3 km/h 82 % 0.0 mm
00:05 12.4 °C 9.8 °C 1003.9 hPa WSW 1.6 km/h 3.2 km/h 84 % 0.0 mm
00:06 15.9 °C 12.8 °C 1002.9 hPa WSW 3.7 km/h 3.9 km/h 82 % 0.0 mm
00:11 15.9 °C 12.8 °C 1003.9 hPa WSW 5.6 km/h 5.6 km/h 82 % 0.0 mm
00:15 12.9 °C 10.1 °C 1003.9 hPa West 1.6 km/h 4.8 km/h 83 % 0.0 mm
00:25 12.9 °C 9.9 °C 1003.9 hPa West 1.6 km/h 3.2 km/h 82 % 0.0 mm
00:35 13.4 °C 10.2 °C 1003.9 hPa West 1.6 km/h 3.2 km/h 81 % 0.0 mm
00:45 13.8 °C 10.2 °C 1003.9 hPa West 1.6 km/h 3.2 km/h 79 % 0.0 mm
00:55 14.3 °C 10.3 °C 1003.9 hPa West 3.2 km/h 6.4 km/h 77 % 0.0 mm
01:05 14.3 °C 10.1 °C 1003.9 hPa WSW 3.2 km/h 6.4 km/h 76 % 0.0 mm
01:15 13.9 °C 9.6 °C 1003.9 hPa WSW 1.6 km/h 1.6 km/h 75 % 0.0 mm
01:25 13.6 °C 9.2 °C 1003.9 hPa Calm   1.6 km/h 75 % 0.0 mm
01:35 13.2 °C 9.1 °C 1003.9 hPa Calm   1.6 km/h 76 % 0.0 mm
01:45 12.5 °C 8.8 °C 1003.9 hPa NE 3.2 km/h 4.8 km/h 78 % 0.0 mm
01:55 12.3 °C 8.6 °C 1003.9 hPa NE 1.6 km/h 3.2 km/h 78 % 0.0 mm
02:05 12.2 °C 8.7 °C 1003.9 hPa Calm   1.6 km/h 79 % 0.0 mm
02:15 12.7 °C 9.3 °C 1003.9 hPa West 1.6 km/h 3.2 km/h 80 % 0.0 mm
02:25 13.3 °C 9.7 °C 1003.9 hPa North 1.6 km/h 3.2 km/h 79 % 0.0 mm
02:35 13.6 °C 9.8 °C 1003.9 hPa NE 1.6 km/h 3.2 km/h 78 % 0.0 mm
02:45 13.9 °C 10.1 °C 1003.9 hPa East 3.2 km/h 3.2 km/h 78 % 0.0 mm
02:55 14.3 °C 10.3 °C 1003.9 hPa NE 1.6 km/h 3.2 km/h 77 % 0.0 mm
03:05 14.2 °C 10.2 °C 1003.9 hPa WSW 1.6 km/h 3.2 km/h 77 % 0.0 mm
03:15 14.6 °C 10.6 °C 1003.9 hPa SW 1.6 km/h 3.2 km/h 77 % 0.0 mm
03:25 15.5 °C 11.3 °C 1003.9 hPa SSE 1.6 km/h 4.8 km/h 76 % 0.0 mm
03:35 15.8 °C 11.4 °C 1005.0 hPa Calm   3.2 km/h 75 % 0.0 mm
03:45 16.5 °C 11.7 °C 1005.0 hPa ENE 1.6 km/h 4.8 km/h 73 % 0.0 mm
03:55 17.3 °C 12.0 °C 1005.0 hPa NNE 1.6 km/h 3.2 km/h 71 % 0.0 mm
04:05 17.8 °C 12.1 °C 1005.0 hPa North 1.6 km/h 1.6 km/h 69 % 0.0 mm
04:15 18.1 °C 11.9 °C 1005.0 hPa North 1.6 km/h 3.2 km/h 67 % 0.0 mm
04:25 18.5 °C 12.3 °C 1005.0 hPa NE 3.2 km/h 3.2 km/h 67 % 0.0 mm
04:35 18.9 °C 12.9 °C 1005.0 hPa ENE 1.6 km/h 4.8 km/h 68 % 0.0 mm
04:45 19.1 °C 12.4 °C 1005.0 hPa WSW 4.8 km/h 4.8 km/h 65 % 0.0 mm
04:55 19.3 °C 12.1 °C 1006.0 hPa WSW 3.2 km/h 12.9 km/h 63 % 0.0 mm
05:05 19.3 °C 11.6 °C 1005.0 hPa WSW 8.0 km/h 8.0 km/h 61 % 0.0 mm
05:15 19.5 °C 11.3 °C 1005.0 hPa West 4.8 km/h 11.3 km/h 59 % 0.0 mm
05:25 19.5 °C 10.5 °C 1006.0 hPa West 11.3 km/h 11.3 km/h 56 % 0.0 mm
10:29 19.5 °C 9.9 °C 1006.0 hPa NNW 12.2 km/h 12.2 km/h 54 % 0.0 mm
10:34 19.7 °C 9.8 °C 1006.0 hPa NW 11.1 km/h 11.1 km/h 53 % 0.0 mm
10:39 19.9 °C 10.1 °C 1006.0 hPa West 10.0 km/h 10.0 km/h 53 % 0.0 mm
10:44 20.2 °C 10.6 °C 1006.0 hPa WNW 5.6 km/h 5.6 km/h 54 % 0.0 mm
10:49 20.4 °C 10.5 °C 1006.0 hPa SSE 7.4 km/h 7.4 km/h 53 % 0.0 mm
10:54 20.6 °C 10.7 °C 1006.0 hPa NW 7.4 km/h 7.4 km/h 53 % 0.0 mm
10:59 20.6 °C 10.7 °C 1006.0 hPa WSW 14.8 km/h 14.8 km/h 53 % 0.0 mm
11:04 20.6 °C 10.4 °C 1006.0 hPa West 14.8 km/h 14.8 km/h 52 % 0.0 mm
11:09 21.0 °C 10.8 °C 1006.0 hPa SW 9.0 km/h 9.0 km/h 52 % 0.0 mm
11:14 20.5 °C 10.0 °C 1006.0 hPa WNW 13.0 km/h 13.0 km/h 51 % 0.0 mm
11:19 20.7 °C 10.2 °C 1006.0 hPa SW 11.1 km/h 11.1 km/h 51 % 0.0 mm
11:24 20.9 °C 10.7 °C 1006.0 hPa WSW 7.4 km/h 7.4 km/h 52 % 0.0 mm
11:29 20.9 °C 10.4 °C 1006.0 hPa NW 13.0 km/h 13.0 km/h 51 % 0.0 mm
11:34 20.8 °C 10.3 °C 1006.0 hPa South 9.5 km/h 9.5 km/h 51 % 0.0 mm
11:39 20.9 °C 10.1 °C 1006.0 hPa West 9.3 km/h 9.3 km/h 50 % 0.0 mm
11:44 21.3 °C 10.4 °C 1006.0 hPa SW 13.0 km/h 13.0 km/h 50 % 0.0 mm
11:50 21.6 °C 11.0 °C 1006.0 hPa WSW 10.0 km/h 10.0 km/h 51 % 0.0 mm
11:54 21.6 °C 10.4 °C 1006.0 hPa WSW 13.0 km/h 13.0 km/h 49 % 0.0 mm
11:59 21.9 °C 10.7 °C 1006.0 hPa West 16.9 km/h 16.9 km/h 49 % 0.0 mm
12:05 21.9 °C 10.7 °C 1006.0 hPa SW 9.0 km/h 9.0 km/h 49 % 0.0 mm
12:09 22.2 °C 11.0 °C 1006.0 hPa SW 11.1 km/h 11.1 km/h 49 % 0.0 mm
12:14 22.4 °C 11.2 °C 1006.0 hPa WSW 9.7 km/h 9.7 km/h 49 % 0.0 mm
12:19 22.7 °C 11.4 °C 1006.0 hPa WNW 9.3 km/h 9.3 km/h 49 % 0.0 mm
12:24 23.0 °C 11.4 °C 1006.0 hPa SW 7.4 km/h 7.4 km/h 48 % 0.0 mm
12:29 23.0 °C 11.1 °C 1006.0 hPa SW 10.3 km/h 10.3 km/h 47 % 0.0 mm
12:34 22.9 °C 11.0 °C 1006.0 hPa West 9.3 km/h 9.3 km/h 47 % 0.0 mm
12:39 23.1 °C 10.8 °C 1006.0 hPa NW 13.0 km/h 13.0 km/h 46 % 0.0 mm
12:45 23.0 °C 10.8 °C 1006.0 hPa WSW 7.4 km/h 7.4 km/h 46 % 0.0 mm
12:49 23.2 °C 10.6 °C 1006.0 hPa West 9.3 km/h 9.3 km/h 45 % 0.0 mm
12:54 22.8 °C 9.9 °C 1006.0 hPa WSW 16.7 km/h 16.7 km/h 44 % 0.0 mm
12:59 23.3 °C 10.3 °C 1006.0 hPa WSW 14.8 km/h 14.8 km/h 44 % 0.0 mm
13:04 23.5 °C 10.6 °C 1006.0 hPa WSW 9.3 km/h 9.3 km/h 44 % 0.0 mm
13:09 23.6 °C 10.6 °C 1005.0 hPa WSW 7.4 km/h 7.4 km/h 44 % 0.0 mm
13:15 23.7 °C 10.7 °C 1005.0 hPa West 11.1 km/h 11.1 km/h 44 % 0.0 mm
13:19 23.8 °C 10.4 °C 1005.0 hPa WSW 11.1 km/h 11.1 km/h 43 % 0.0 mm
13:24 23.6 °C 10.3 °C 1005.0 hPa WSW 7.4 km/h 7.4 km/h 43 % 0.0 mm
13:29 23.6 °C 9.9 °C 1005.0 hPa WSW 13.0 km/h 13.0 km/h 42 % 0.0 mm
13:34 23.7 °C 10.0 °C 1005.0 hPa WNW 13.0 km/h 13.0 km/h 42 % 0.0 mm
13:39 24.2 °C 10.5 °C 1006.0 hPa West 9.3 km/h 9.3 km/h 42 % 0.0 mm
13:44 23.9 °C 9.8 °C 1006.0 hPa WNW 7.4 km/h 7.4 km/h 41 % 0.0 mm
13:49 24.0 °C 9.9 °C 1006.0 hPa WSW 9.3 km/h 9.3 km/h 41 % 0.0 mm
13:54 24.5 °C 10.7 °C 1005.0 hPa WSW 7.4 km/h 7.4 km/h 42 % 0.0 mm
13:59 24.3 °C 10.2 °C 1005.0 hPa WSW 20.4 km/h 20.4 km/h 41 % 0.0 mm
14:04 24.1 °C 9.7 °C 1005.0 hPa WSW 9.3 km/h 9.3 km/h 40 % 0.0 mm
14:10 24.2 °C 9.7 °C 1006.0 hPa WNW 5.8 km/h 5.8 km/h 40 % 0.0 mm
14:14 24.2 °C 9.4 °C 1006.0 hPa NW 13.0 km/h 13.0 km/h 39 % 0.0 mm
14:20 24.1 °C 9.3 °C 1006.0 hPa NNW 11.1 km/h 11.1 km/h 39 % 0.0 mm
14:24 24.3 °C 9.4 °C 1006.0 hPa WNW 5.6 km/h 5.6 km/h 39 % 0.0 mm
14:30 24.4 °C 9.6 °C 1006.0 hPa SW 9.3 km/h 9.3 km/h 39 % 0.0 mm
14:35 24.3 °C 9.4 °C 1006.0 hPa West 13.0 km/h 13.0 km/h 39 % 0.0 mm
14:40 24.2 °C 9.4 °C 1006.0 hPa SSW 11.1 km/h 11.1 km/h 39 % 0.0 mm
14:45 24.2 °C 9.4 °C 1006.0 hPa SW 9.3 km/h 9.3 km/h 39 % 0.0 mm
14:50 24.4 °C 9.6 °C 1006.0 hPa WNW 11.1 km/h 11.1 km/h 39 % 0.0 mm
14:55 24.5 °C 9.6 °C 1006.0 hPa West 9.3 km/h 9.3 km/h 39 % 0.0 mm
15:00 24.6 °C 9.3 °C 1006.0 hPa WNW 12.6 km/h 12.6 km/h 38 % 0.0 mm
15:05 24.3 °C 8.7 °C 1006.0 hPa WSW 13.0 km/h 13.0 km/h 37 % 0.0 mm
15:06 24.4 °C 8.8 °C 1006.0 hPa SW 7.4 km/h 7.4 km/h 37 % 0.0 mm
15:11 24.4 °C 8.3 °C 1006.0 hPa WSW 9.3 km/h 9.3 km/h 36 % 0.0 mm
15:16 24.3 °C 8.3 °C 1006.0 hPa North 13.0 km/h 13.0 km/h 36 % 0.0 mm
15:21 24.4 °C 8.3 °C 1006.0 hPa WSW 16.7 km/h 16.7 km/h 36 % 0.0 mm
15:26 24.0 °C 8.4 °C 1006.0 hPa WSW 9.3 km/h 9.3 km/h 37 % 0.0 mm
15:31 24.0 °C 8.0 °C 1006.0 hPa WSW 14.8 km/h 14.8 km/h 36 % 0.0 mm
15:36 24.2 °C 8.2 °C 1006.0 hPa WSW 10.3 km/h 10.3 km/h 36 % 0.0 mm
15:41 24.7 °C 9.4 °C 1005.0 hPa WSW 3.9 km/h 3.9 km/h 38 % 0.0 mm
15:46 24.9 °C 8.8 °C 1005.0 hPa WSW 9.3 km/h 9.7 km/h 36 % 0.0 mm
15:51 25.0 °C 8.9 °C 1005.0 hPa WSW 11.1 km/h 11.1 km/h 36 % 0.0 mm
15:56 24.7 °C 9.0 °C 1006.0 hPa SW 9.3 km/h 9.3 km/h 37 % 0.0 mm
16:01 24.8 °C 9.1 °C 1006.0 hPa WSW 7.4 km/h 7.4 km/h 37 % 0.0 mm
16:06 24.8 °C 8.7 °C 1006.0 hPa NNW 9.3 km/h 9.3 km/h 36 % 0.0 mm
16:11 25.0 °C 8.4 °C 1006.0 hPa WSW 9.3 km/h 9.3 km/h 35 % 0.0 mm
16:16 25.3 °C 8.7 °C 1006.0 hPa WSW 7.4 km/h 7.4 km/h 35 % 0.0 mm
16:21 25.4 °C 8.8 °C 1006.0 hPa SSW 13.0 km/h 13.0 km/h 35 % 0.0 mm
16:26 25.1 °C 8.1 °C 1006.0 hPa WNW 9.3 km/h 9.3 km/h 34 % 0.0 mm
16:31 25.3 °C 8.3 °C 1006.0 hPa WSW 10.0 km/h 10.0 km/h 34 % 0.0 mm
16:33 25.2 °C 7.8 °C 1006.0 hPa West 9.3 km/h 9.3 km/h 33 % 0.0 mm
16:38 25.3 °C 8.3 °C 1006.0 hPa SW 9.3 km/h 9.3 km/h 34 % 0.0 mm
16:43 25.4 °C 7.5 °C 1005.0 hPa SW 11.1 km/h 11.1 km/h 32 % 0.0 mm
16:48 25.3 °C 7.4 °C 1005.0 hPa South 9.3 km/h 9.3 km/h 32 % 0.0 mm
16:53 25.4 °C 7.9 °C 1005.0 hPa WNW 11.1 km/h 11.1 km/h 33 % 0.0 mm
16:58 25.0 °C 7.6 °C 1006.0 hPa SW 13.0 km/h 13.0 km/h 33 % 0.0 mm
17:03 25.0 °C 8.4 °C 1006.0 hPa WSW 13.0 km/h 13.0 km/h 35 % 0.0 mm
17:08 24.6 °C 9.3 °C 1006.0 hPa SW 24.1 km/h 24.1 km/h 38 % 0.0 mm
17:13 23.7 °C 8.9 °C 1006.0 hPa SW 14.8 km/h 14.8 km/h 39 % 0.0 mm
17:18 23.8 °C 9.4 °C 1006.0 hPa SW 13.0 km/h 13.0 km/h 40 % 0.0 mm
17:23 23.1 °C 8.8 °C 1006.0 hPa SSW 9.3 km/h 9.3 km/h 40 % 0.0 mm
17:28 23.1 °C 9.1 °C 1006.0 hPa WSW 24.1 km/h 24.1 km/h 41 % 0.0 mm
17:33 22.8 °C 9.2 °C 1006.0 hPa SSW 14.8 km/h 14.8 km/h 42 % 0.0 mm
17:38 22.8 °C 9.2 °C 1006.0 hPa WSW 13.0 km/h 13.0 km/h 42 % 0.0 mm
17:43 22.8 °C 9.2 °C 1006.0 hPa SW 16.7 km/h 16.7 km/h 42 % 0.0 mm
17:48 22.6 °C 9.1 °C 1006.0 hPa SW 22.2 km/h 22.2 km/h 42 % 0.0 mm
17:53 22.8 °C 9.2 °C 1006.0 hPa West 16.7 km/h 16.7 km/h 42 % 0.0 mm
17:58 22.9 °C 9.3 °C 1006.0 hPa SW 14.8 km/h 14.8 km/h 42 % 0.0 mm
18:03 22.7 °C 9.1 °C 1006.0 hPa SE 14.8 km/h 14.8 km/h 42 % 0.0 mm
18:08 22.9 °C 9.3 °C 1006.0 hPa SW 9.3 km/h 9.3 km/h 42 % 0.0 mm
18:13 23.0 °C 9.1 °C 1006.0 hPa WSW 13.0 km/h 13.0 km/h 41 % 0.0 mm
18:18 23.0 °C 9.1 °C 1006.0 hPa SW 13.0 km/h 13.0 km/h 41 % 0.0 mm
18:23 22.9 °C 8.9 °C 1006.0 hPa West 13.0 km/h 13.0 km/h 41 % 0.0 mm
18:28 22.7 °C 8.8 °C 1006.0 hPa SSW 16.7 km/h 16.7 km/h 41 % 0.0 mm
18:33 22.8 °C 8.8 °C 1006.0 hPa WSW 18.5 km/h 18.5 km/h 41 % 0.0 mm
18:38 22.9 °C 8.9 °C 1006.0 hPa SW 13.0 km/h 13.0 km/h 41 % 0.0 mm
18:43 22.8 °C 8.5 °C 1006.0 hPa West 16.9 km/h 16.9 km/h 40 % 0.0 mm
18:48 22.8 °C 8.5 °C 1006.0 hPa WSW 9.3 km/h 9.3 km/h 40 % 0.0 mm
18:53 22.7 °C 8.4 °C 1006.0 hPa WSW 16.7 km/h 16.7 km/h 40 % 0.0 mm
18:58 22.5 °C 8.2 °C 1007.0 hPa SW 22.2 km/h 22.2 km/h 40 % 0.0 mm
19:03 22.5 °C 8.2 °C 1007.0 hPa SSW 11.1 km/h 11.1 km/h 40 % 0.0 mm
19:08 22.4 °C 8.1 °C 1007.0 hPa SW 16.7 km/h 16.7 km/h 40 % 0.0 mm
19:13 22.3 °C 8.1 °C 1007.0 hPa SSW 19.0 km/h 19.0 km/h 40 % 0.0 mm
19:18 22.2 °C 7.9 °C 1007.0 hPa SSW 24.1 km/h 24.1 km/h 40 % 0.0 mm
19:23 22.1 °C 7.9 °C 1007.0 hPa SW 13.0 km/h 13.0 km/h 40 % 0.0 mm
19:28 21.8 °C 7.6 °C 1007.0 hPa SW 11.1 km/h 11.1 km/h 40 % 0.0 mm
19:33 21.7 °C 7.5 °C 1007.0 hPa WSW 13.0 km/h 13.0 km/h 40 % 0.0 mm
19:38 21.5 °C 7.3 °C 1007.0 hPa WSW 20.4 km/h 20.4 km/h 40 % 0.0 mm
19:43 21.2 °C 7.1 °C 1007.0 hPa SW 14.8 km/h 14.8 km/h 40 % 0.0 mm
19:48 20.9 °C 7.2 °C 1007.0 hPa SW 11.1 km/h 11.1 km/h 41 % 0.0 mm
19:53 20.8 °C 7.1 °C 1007.0 hPa SSW 16.7 km/h 16.7 km/h 41 % 0.0 mm
19:58 20.6 °C 6.9 °C 1007.0 hPa WSW 11.1 km/h 11.1 km/h 41 % 0.0 mm
20:03 20.5 °C 6.4 °C 1007.0 hPa WSW 9.3 km/h 9.3 km/h 40 % 0.0 mm
20:08 20.4 °C 6.7 °C 1007.0 hPa West 11.1 km/h 11.1 km/h 41 % 0.0 mm
20:13 20.4 °C 6.7 °C 1008.0 hPa SW 13.0 km/h 13.0 km/h 41 % 0.0 mm
20:18 20.4 °C 7.1 °C 1008.0 hPa South 14.8 km/h 14.8 km/h 42 % 0.0 mm
20:23 20.3 °C 7.3 °C 1008.0 hPa SW 11.1 km/h 11.1 km/h 43 % 0.0 mm
20:28 20.2 °C 7.6 °C 1009.0 hPa SSW 11.1 km/h 11.1 km/h 44 % 0.0 mm
20:33 20.0 °C 7.7 °C 1009.0 hPa SW 11.1 km/h 11.1 km/h 45 % 0.0 mm
20:38 19.8 °C 8.2 °C 1009.0 hPa SW 9.5 km/h 9.5 km/h 47 % 0.0 mm
20:43 19.6 °C 8.3 °C 1008.0 hPa WSW 11.9 km/h 11.9 km/h 48 % 0.0 mm
20:48 19.5 °C 8.5 °C 1008.0 hPa SW 9.3 km/h 9.3 km/h 49 % 0.0 mm
20:53 19.3 °C 8.6 °C 1008.0 hPa West 13.0 km/h 13.0 km/h 50 % 0.0 mm
20:58 19.1 °C 8.7 °C 1008.0 hPa WSW 13.0 km/h 13.0 km/h 51 % 0.0 mm
21:03 19.0 °C 8.9 °C 1008.0 hPa SSW 9.3 km/h 9.3 km/h 52 % 0.0 mm
21:08 18.8 °C 9.3 °C 1008.0 hPa WSW 9.3 km/h 9.3 km/h 54 % 0.0 mm
21:13 18.7 °C 9.2 °C 1009.0 hPa WSW 9.3 km/h 9.3 km/h 54 % 0.0 mm
21:18 18.5 °C 9.3 °C 1009.0 hPa WSW 10.0 km/h 10.0 km/h 55 % 0.0 mm
21:23 18.4 °C 9.4 °C 1009.0 hPa WSW 9.5 km/h 9.5 km/h 56 % 0.0 mm
21:28 18.3 °C 9.4 °C 1009.0 hPa WSW 9.3 km/h 9.3 km/h 56 % 0.0 mm
21:33 18.2 °C 9.6 °C 1009.0 hPa SSW 5.6 km/h 5.6 km/h 57 % 0.0 mm
21:38 18.0 °C 9.6 °C 1009.0 hPa SW 5.6 km/h 5.6 km/h 58 % 0.0 mm
21:43 17.9 °C 9.5 °C 1010.0 hPa WSW 3.7 km/h 3.9 km/h 58 % 0.0 mm
21:48 17.8 °C 9.4 °C 1010.0 hPa SSW 5.6 km/h 5.6 km/h 58 % 0.0 mm
21:53 17.7 °C 9.6 °C 1010.0 hPa WSW 5.6 km/h 5.6 km/h 59 % 0.0 mm
21:58 17.6 °C 9.5 °C 1010.0 hPa SSW 5.6 km/h 5.6 km/h 59 % 0.0 mm
22:03 17.4 °C 9.3 °C 1010.0 hPa WSW 7.4 km/h 7.4 km/h 59 % 0.0 mm
22:08 17.3 °C 9.4 °C 1010.0 hPa SW 5.6 km/h 5.6 km/h 60 % 0.0 mm
22:13 17.2 °C 9.4 °C 1010.0 hPa SW 7.4 km/h 7.4 km/h 60 % 0.0 mm
22:18 17.1 °C 9.5 °C 1010.0 hPa WSW 5.6 km/h 5.8 km/h 61 % 0.0 mm
22:23 17.0 °C 9.4 °C 1010.0 hPa WSW 3.9 km/h 3.9 km/h 61 % 0.0 mm
22:25 14.6 °C 9.0 °C 1010.7 hPa Calm     69 % 0.0 mm
22:28 17.0 °C 9.4 °C 1010.0 hPa West 5.6 km/h 5.6 km/h 61 % 0.0 mm
22:33 17.0 °C 9.4 °C 1010.0 hPa WNW 2.3 km/h 2.3 km/h 61 % 0.0 mm
22:35 14.4 °C 8.8 °C 1010.7 hPa SW 1.6 km/h 3.2 km/h 69 % 0.0 mm
22:39 17.1 °C 9.5 °C 1010.0 hPa West 5.6 km/h 5.6 km/h 61 % 0.0 mm
22:44 17.0 °C 9.7 °C 1010.0 hPa WSW 3.7 km/h 3.7 km/h 62 % 0.0 mm
22:45 14.4 °C 8.8 °C 1010.7 hPa Calm   1.6 km/h 69 % 0.0 mm
22:49 17.0 °C 9.7 °C 1010.0 hPa SW 1.9 km/h   62 % 0.0 mm
22:54 17.0 °C 9.7 °C 1010.0 hPa West 1.9 km/h 1.9 km/h 62 % 0.0 mm
22:55 14.0 °C 8.4 °C 1010.7 hPa West 1.6 km/h 3.2 km/h 69 % 0.0 mm
22:59 17.0 °C 9.7 °C 1010.0 hPa WSW 1.9 km/h   62 % 0.0 mm
23:04 16.9 °C 9.8 °C 1010.0 hPa SW 3.7 km/h 3.7 km/h 63 % 0.0 mm
23:05 13.9 °C 8.3 °C 1010.7 hPa WSW 1.6 km/h 4.8 km/h 69 % 0.0 mm
23:09 16.8 °C 9.9 °C 1010.0 hPa NW 3.7 km/h   64 % 0.0 mm
23:14 16.8 °C 9.9 °C 1010.0 hPa WSW 4.2 km/h 4.2 km/h 64 % 0.0 mm
23:15 14.0 °C 8.6 °C 1010.7 hPa WSW 1.6 km/h 4.8 km/h 70 % 0.0 mm
23:19 16.7 °C 9.8 °C 1010.0 hPa SSW 3.7 km/h 3.7 km/h 64 % 0.0 mm
23:24 16.6 °C 9.8 °C 1010.0 hPa SW 3.7 km/h 3.7 km/h 64 % 0.0 mm
23:25 14.2 °C 8.6 °C 1010.7 hPa West 3.2 km/h 3.2 km/h 69 % 0.0 mm
23:29 16.3 °C 9.5 °C 1010.0 hPa SW 3.9 km/h 3.9 km/h 64 % 0.0 mm
23:34 16.0 °C 9.4 °C 1010.0 hPa SW 3.9 km/h 3.9 km/h 65 % 0.0 mm
23:35 14.0 °C 8.6 °C 1010.7 hPa WNW 1.6 km/h 3.2 km/h 70 % 0.0 mm
23:39 16.0 °C 9.4 °C 1010.0 hPa WSW 3.7 km/h 3.7 km/h 65 % 0.0 mm
23:44 16.0 °C 9.4 °C 1010.0 hPa SW 5.6 km/h 5.6 km/h 65 % 0.0 mm
23:45 14.1 °C 8.7 °C 1010.7 hPa Calm   3.2 km/h 70 % 0.0 mm
23:49 16.0 °C 9.7 °C 1010.0 hPa SW 3.9 km/h 3.9 km/h 66 % 0.0 mm
23:54 16.0 °C 9.7 °C 1010.0 hPa WSW 6.4 km/h 6.4 km/h 66 % 0.0 mm
23:55 14.2 °C 8.8 °C 1011.7 hPa Calm   3.2 km/h 70 % 0.0 mm
23:59 16.1 °C 9.9 °C 1010.7 hPa WSW 11.1 km/h 11.1 km/h 67 % 0.0 mm
Meteo Sesrovires
Elogis d' Weather Underground - 3.5 mb

Guio original per  Jim McMurry - jmcmurry@mwt.net Adaptat per a la plantilla per  Wim van der Kuil - Leuven-Template.eu

Trobareu la nostra informacio del temps tambe a:

Weather Underground

AWEKAS